createdAt,value
2018-04-15T00:00:30.481Z,14.81
2018-04-15T00:01:35.997Z,14.81
2018-04-15T00:02:41.507Z,14.74
2018-04-15T00:03:47.017Z,14.72
2018-04-15T00:04:52.534Z,14.78
2018-04-15T00:05:58.048Z,14.69
2018-04-15T00:07:03.566Z,14.80
2018-04-15T00:08:09.079Z,14.71
2018-04-15T00:09:14.600Z,14.81
2018-04-15T00:10:20.102Z,14.78
2018-04-15T00:11:25.618Z,14.83
2018-04-15T00:12:31.144Z,14.81
2018-04-15T00:13:36.646Z,14.81
2018-04-15T00:14:42.163Z,14.69
2018-04-15T00:15:47.675Z,14.83
2018-04-15T00:16:53.189Z,14.84
2018-04-15T00:17:58.706Z,14.71
2018-04-15T00:19:04.217Z,14.78
2018-04-15T00:20:09.731Z,14.81
2018-04-15T00:21:15.243Z,14.75
2018-04-15T00:22:20.772Z,14.78
2018-04-15T00:23:26.295Z,14.71
2018-04-15T00:24:31.794Z,14.72
2018-04-15T00:25:37.312Z,14.69
2018-04-15T00:26:42.818Z,14.65
2018-04-15T00:27:48.449Z,14.65
2018-04-15T00:28:53.853Z,14.61
2018-04-15T00:29:59.362Z,14.60
2018-04-15T00:31:04.893Z,14.67
2018-04-15T00:32:10.387Z,14.60
2018-04-15T00:33:15.911Z,14.68
2018-04-15T00:34:21.416Z,14.60
2018-04-15T00:35:26.929Z,14.65
2018-04-15T00:36:32.450Z,14.65
2018-04-15T00:37:37.963Z,14.61
2018-04-15T00:38:43.470Z,14.57
2018-04-15T00:39:48.986Z,14.61
2018-04-15T00:40:54.515Z,14.60
2018-04-15T00:42:00.022Z,14.54
2018-04-15T00:43:05.530Z,14.54
2018-04-15T00:44:11.038Z,14.56
2018-04-15T00:45:16.554Z,14.49
2018-04-15T00:46:22.070Z,14.47
2018-04-15T00:47:27.588Z,14.52
2018-04-15T00:48:33.097Z,14.60
2018-04-15T00:49:38.620Z,14.47
2018-04-15T00:50:44.123Z,14.50
2018-04-15T00:51:49.649Z,14.49
2018-04-15T00:52:55.158Z,14.60
2018-04-15T00:54:00.668Z,14.53
2018-04-15T00:55:06.182Z,14.53
2018-04-15T00:56:11.697Z,14.53
2018-04-15T00:57:17.207Z,14.53
2018-04-15T00:58:22.724Z,14.46
2018-04-15T00:59:28.235Z,14.52
2018-04-15T01:00:33.763Z,14.44
2018-04-15T01:01:39.266Z,14.39
2018-04-15T01:02:44.778Z,14.49
2018-04-15T01:03:50.327Z,14.34
2018-04-15T01:04:55.808Z,14.42
2018-04-15T01:06:01.322Z,14.38
2018-04-15T01:07:06.837Z,14.37
2018-04-15T01:08:12.365Z,14.46
2018-04-15T01:09:17.865Z,14.37
2018-04-15T01:10:23.378Z,14.39
2018-04-15T01:11:28.891Z,14.37
2018-04-15T01:12:34.408Z,14.42
2018-04-15T01:13:39.919Z,14.37
2018-04-15T01:14:45.431Z,14.43
2018-04-15T01:15:50.949Z,14.37
2018-04-15T01:16:56.463Z,14.32
2018-04-15T01:18:01.981Z,14.35
2018-04-15T01:19:07.493Z,14.35
2018-04-15T01:20:13.005Z,14.42
2018-04-15T01:21:18.522Z,14.46
2018-04-15T01:22:24.038Z,14.38
2018-04-15T01:23:29.555Z,14.42
2018-04-15T01:24:35.059Z,14.38
2018-04-15T01:25:40.575Z,14.37
2018-04-15T01:26:46.087Z,14.35
2018-04-15T01:27:51.602Z,14.38
2018-04-15T01:28:57.117Z,14.43
2018-04-15T01:30:02.640Z,14.38
2018-04-15T01:31:08.145Z,14.37
2018-04-15T01:32:13.657Z,14.37
2018-04-15T01:33:19.192Z,14.38
2018-04-15T01:34:24.689Z,14.37
2018-04-15T01:35:30.199Z,14.38
2018-04-15T01:36:35.712Z,14.39
2018-04-15T01:37:41.232Z,14.42
2018-04-15T01:38:46.804Z,14.35
2018-04-15T01:39:52.265Z,14.39
2018-04-15T01:40:57.769Z,14.38
2018-04-15T01:42:03.284Z,14.34
2018-04-15T01:43:08.805Z,14.38
2018-04-15T01:44:14.310Z,14.37
2018-04-15T01:45:19.827Z,14.39
2018-04-15T01:46:25.338Z,14.39
2018-04-15T01:47:30.854Z,14.38
2018-04-15T01:48:36.369Z,14.37
2018-04-15T01:49:41.883Z,14.39
2018-04-15T01:50:47.397Z,14.37
2018-04-15T01:51:52.907Z,14.39
2018-04-15T01:52:58.423Z,14.42
2018-04-15T01:54:03.939Z,14.49
2018-04-15T01:55:09.451Z,14.44
2018-04-15T01:56:14.965Z,14.49
2018-04-15T01:57:20.483Z,14.52
2018-04-15T01:58:25.990Z,14.44
2018-04-15T01:59:31.503Z,14.47
2018-04-15T02:00:37.023Z,14.46
2018-04-15T02:01:42.543Z,14.38
2018-04-15T02:02:48.053Z,14.49
2018-04-15T02:03:53.560Z,14.47
2018-04-15T02:04:59.077Z,14.44
2018-04-15T02:06:04.591Z,14.47
2018-04-15T02:07:10.107Z,14.53
2018-04-15T02:08:15.618Z,14.50
2018-04-15T02:09:21.131Z,14.53
2018-04-15T02:10:26.649Z,14.49
2018-04-15T02:11:32.176Z,14.50
2018-04-15T02:12:37.677Z,14.52
2018-04-15T02:13:43.199Z,14.47
2018-04-15T02:14:48.705Z,14.49
2018-04-15T02:15:54.219Z,14.49
2018-04-15T02:16:59.728Z,14.49
2018-04-15T02:18:05.245Z,14.50
2018-04-15T02:19:10.761Z,14.38
2018-04-15T02:20:16.274Z,14.38
2018-04-15T02:21:21.784Z,14.47
2018-04-15T02:22:27.301Z,14.44
2018-04-15T02:23:32.841Z,14.34
2018-04-15T02:24:38.327Z,14.38
2018-04-15T02:25:43.842Z,14.47
2018-04-15T02:26:49.366Z,14.37
2018-04-15T02:27:54.869Z,14.42
2018-04-15T02:29:00.389Z,14.47
2018-04-15T02:30:05.896Z,14.38
2018-04-15T02:31:11.411Z,14.39
2018-04-15T02:32:16.928Z,14.34
2018-04-15T02:33:22.441Z,14.43
2018-04-15T02:34:27.958Z,14.47
2018-04-15T02:35:33.468Z,14.43
2018-04-15T02:36:38.981Z,14.39
2018-04-15T02:37:44.494Z,14.39
2018-04-15T02:38:50.015Z,14.42
2018-04-15T02:39:55.531Z,14.37
2018-04-15T02:41:01.039Z,14.39
2018-04-15T02:42:06.562Z,14.42
2018-04-15T02:43:12.068Z,14.42
2018-04-15T02:44:17.589Z,14.37
2018-04-15T02:45:23.097Z,14.38
2018-04-15T02:46:28.614Z,14.39
2018-04-15T02:47:34.214Z,14.38
2018-04-15T02:48:39.637Z,14.35
2018-04-15T02:49:45.168Z,14.35
2018-04-15T02:50:50.664Z,14.35
2018-04-15T02:51:56.180Z,14.25
2018-04-15T02:53:01.700Z,14.38
2018-04-15T02:54:07.215Z,14.28
2018-04-15T02:55:12.719Z,14.24
2018-04-15T02:56:18.240Z,14.37
2018-04-15T02:57:23.751Z,14.35
2018-04-15T02:58:29.260Z,14.35
2018-04-15T02:59:34.781Z,14.34
2018-04-15T03:00:40.335Z,14.32
2018-04-15T03:01:45.808Z,14.35
2018-04-15T03:02:51.338Z,14.32
2018-04-15T03:03:56.837Z,14.37
2018-04-15T03:05:02.354Z,14.32
2018-04-15T03:06:07.861Z,14.34
2018-04-15T03:07:13.387Z,14.31
2018-04-15T03:08:18.895Z,14.24
2018-04-15T03:09:24.405Z,14.34
2018-04-15T03:10:29.920Z,14.35
2018-04-15T03:11:35.428Z,14.34
2018-04-15T03:12:40.946Z,14.34
2018-04-15T03:13:46.460Z,14.25
2018-04-15T03:14:51.968Z,14.21
2018-04-15T03:15:57.486Z,14.20
2018-04-15T03:17:02.997Z,14.31
2018-04-15T03:18:08.509Z,14.27
2018-04-15T03:19:14.025Z,14.29
2018-04-15T03:20:19.539Z,14.38
2018-04-15T03:21:25.058Z,14.29
2018-04-15T03:22:30.567Z,14.27
2018-04-15T03:23:36.080Z,14.31
2018-04-15T03:24:41.591Z,14.34
2018-04-15T03:25:47.108Z,14.34
2018-04-15T03:26:52.629Z,14.37
2018-04-15T03:27:58.137Z,14.28
2018-04-15T03:29:03.654Z,14.35
2018-04-15T03:30:09.179Z,14.37
2018-04-15T03:31:14.675Z,14.34
2018-04-15T03:32:20.190Z,14.34
2018-04-15T03:33:25.712Z,14.35
2018-04-15T03:34:31.218Z,14.38
2018-04-15T03:35:36.741Z,14.34
2018-04-15T03:36:42.249Z,14.34
2018-04-15T03:37:47.762Z,14.32
2018-04-15T03:38:53.277Z,14.35
2018-04-15T03:39:58.787Z,14.32
2018-04-15T03:41:04.301Z,14.39
2018-04-15T03:42:09.813Z,14.43
2018-04-15T03:43:15.339Z,14.37
2018-04-15T03:44:20.849Z,14.39
2018-04-15T03:45:26.357Z,14.35
2018-04-15T03:46:31.871Z,14.34
2018-04-15T03:47:37.388Z,14.37
2018-04-15T03:48:42.898Z,14.35
2018-04-15T03:49:48.415Z,14.42
2018-04-15T03:50:53.928Z,14.35
2018-04-15T03:51:59.438Z,14.37
2018-04-15T03:53:04.951Z,14.38
2018-04-15T03:54:10.477Z,14.32
2018-04-15T03:55:15.983Z,14.34
2018-04-15T03:56:21.494Z,14.37
2018-04-15T03:57:27.010Z,14.42
2018-04-15T03:58:32.528Z,14.35
2018-04-15T03:59:38.041Z,14.37
2018-04-15T04:00:43.553Z,14.35
2018-04-15T04:01:49.069Z,14.34
2018-04-15T04:02:54.690Z,14.37
2018-04-15T04:04:00.101Z,14.39
2018-04-15T04:05:05.609Z,14.37
2018-04-15T04:06:11.123Z,14.42
2018-04-15T04:07:16.636Z,14.38
2018-04-15T04:08:22.148Z,14.37
2018-04-15T04:09:27.671Z,14.43
2018-04-15T04:10:33.181Z,14.34
2018-04-15T04:11:38.690Z,14.35
2018-04-15T04:12:44.204Z,14.35
2018-04-15T04:13:49.716Z,14.34
2018-04-15T04:14:55.236Z,14.31
2018-04-15T04:16:00.744Z,14.34
2018-04-15T04:17:06.259Z,14.37
2018-04-15T04:18:11.770Z,14.42
2018-04-15T04:19:17.293Z,14.34
2018-04-15T04:20:22.855Z,14.34
2018-04-15T04:21:28.319Z,14.29
2018-04-15T04:22:33.829Z,14.38
2018-04-15T04:23:39.342Z,14.39
2018-04-15T04:24:44.861Z,14.42
2018-04-15T04:25:50.368Z,14.46
2018-04-15T04:26:55.885Z,14.38
2018-04-15T04:28:01.403Z,14.43
2018-04-15T04:29:06.910Z,14.35
2018-04-15T04:30:12.424Z,14.27
2018-04-15T04:31:17.949Z,14.38
2018-04-15T04:32:23.457Z,14.39
2018-04-15T04:33:28.971Z,14.35
2018-04-15T04:34:34.478Z,14.43
2018-04-15T04:35:40.000Z,14.39
2018-04-15T04:36:45.509Z,14.39
2018-04-15T04:37:51.089Z,14.46
2018-04-15T04:38:56.541Z,14.42
2018-04-15T04:40:02.057Z,14.38
2018-04-15T04:41:07.565Z,14.39
2018-04-15T04:42:13.079Z,14.37
2018-04-15T04:43:18.597Z,14.37
2018-04-15T04:44:24.114Z,14.37
2018-04-15T04:45:29.615Z,14.39
2018-04-15T04:46:35.137Z,14.35
2018-04-15T04:47:40.647Z,14.43
2018-04-15T04:48:46.161Z,14.32
2018-04-15T04:49:51.672Z,14.42
2018-04-15T04:50:57.190Z,14.37
2018-04-15T04:52:02.704Z,14.43
2018-04-15T04:53:08.215Z,14.28
2018-04-15T04:54:13.731Z,14.39
2018-04-15T04:55:19.241Z,14.42
2018-04-15T04:56:24.762Z,14.27
2018-04-15T04:57:30.271Z,14.39
2018-04-15T04:58:35.781Z,14.39
2018-04-15T04:59:41.297Z,14.39
2018-04-15T05:00:46.810Z,14.34
2018-04-15T05:01:52.330Z,14.39
2018-04-15T05:02:57.839Z,14.34
2018-04-15T05:04:03.361Z,14.42
2018-04-15T05:05:08.871Z,14.42
2018-04-15T05:06:14.385Z,14.37
2018-04-15T05:07:19.899Z,14.34
2018-04-15T05:08:25.431Z,14.46
2018-04-15T05:09:30.919Z,14.39
2018-04-15T05:10:36.436Z,14.39
2018-04-15T05:11:41.948Z,14.38
2018-04-15T05:12:47.468Z,14.35
2018-04-15T05:13:52.973Z,14.37
2018-04-15T05:14:58.495Z,14.35
2018-04-15T05:16:04.007Z,14.43
2018-04-15T05:17:09.571Z,14.31
2018-04-15T05:18:15.030Z,14.29
2018-04-15T05:19:20.543Z,14.37
2018-04-15T05:20:26.058Z,14.27
2018-04-15T05:21:31.572Z,14.43
2018-04-15T05:22:37.085Z,14.27
2018-04-15T05:23:42.598Z,14.37
2018-04-15T05:24:48.117Z,14.35
2018-04-15T05:25:53.629Z,14.43
2018-04-15T05:26:59.139Z,14.29
2018-04-15T05:28:04.661Z,14.37
2018-04-15T05:29:10.169Z,14.28
2018-04-15T05:30:15.688Z,14.43
2018-04-15T05:31:21.199Z,14.42
2018-04-15T05:32:26.708Z,14.37
2018-04-15T05:33:32.232Z,14.37
2018-04-15T05:34:37.740Z,14.38
2018-04-15T05:35:43.252Z,14.43
2018-04-15T05:36:48.773Z,14.39
2018-04-15T05:37:54.279Z,14.27
2018-04-15T05:38:59.797Z,14.32
2018-04-15T05:40:05.310Z,14.39
2018-04-15T05:41:10.820Z,14.35
2018-04-15T05:42:16.333Z,14.35
2018-04-15T05:43:21.851Z,14.35
2018-04-15T05:44:27.357Z,14.32
2018-04-15T05:45:32.927Z,14.38
2018-04-15T05:46:38.389Z,14.34
2018-04-15T05:47:43.903Z,14.35
2018-04-15T05:48:49.455Z,14.31
2018-04-15T05:49:54.929Z,14.38
2018-04-15T05:51:00.449Z,14.37
2018-04-15T05:52:05.960Z,14.38
2018-04-15T05:53:11.473Z,14.37
2018-04-15T05:54:16.985Z,14.37
2018-04-15T05:55:22.505Z,14.35
2018-04-15T05:56:28.017Z,14.34
2018-04-15T05:57:33.529Z,14.37
2018-04-15T05:58:39.039Z,14.35
2018-04-15T05:59:44.565Z,14.34
2018-04-15T06:00:50.068Z,14.42
2018-04-15T06:01:55.583Z,14.38
2018-04-15T06:03:01.102Z,14.39
2018-04-15T06:04:06.608Z,14.38
2018-04-15T06:05:12.142Z,14.49
2018-04-15T06:06:17.636Z,14.38
2018-04-15T06:07:23.156Z,14.39
2018-04-15T06:08:28.668Z,14.44
2018-04-15T06:09:34.181Z,14.42
2018-04-15T06:10:39.694Z,14.44
2018-04-15T06:11:45.206Z,14.38
2018-04-15T06:12:50.720Z,14.39
2018-04-15T06:13:56.270Z,14.43
2018-04-15T06:15:01.751Z,14.47
2018-04-15T06:16:07.267Z,14.43
2018-04-15T06:17:12.774Z,14.47
2018-04-15T06:18:18.292Z,14.44
2018-04-15T06:19:23.808Z,14.39
2018-04-15T06:20:29.319Z,14.46
2018-04-15T06:21:34.834Z,14.44
2018-04-15T06:22:40.347Z,14.50
2018-04-15T06:23:45.862Z,14.57
2018-04-15T06:24:51.385Z,14.46
2018-04-15T06:25:56.893Z,14.46
2018-04-15T06:27:02.411Z,14.56
2018-04-15T06:28:07.915Z,14.49
2018-04-15T06:29:13.433Z,14.50
2018-04-15T06:30:18.947Z,14.60
2018-04-15T06:31:24.460Z,14.56
2018-04-15T06:32:30.028Z,14.62
2018-04-15T06:33:35.482Z,14.61
2018-04-15T06:34:40.999Z,14.61
2018-04-15T06:35:46.512Z,14.60
2018-04-15T06:36:52.082Z,14.60
2018-04-15T06:37:57.541Z,14.65
2018-04-15T06:39:03.053Z,14.68
2018-04-15T06:40:08.569Z,14.67
2018-04-15T06:41:14.107Z,14.57
2018-04-15T06:42:19.598Z,14.62
2018-04-15T06:43:25.110Z,14.64
2018-04-15T06:44:30.623Z,14.67
2018-04-15T06:45:36.139Z,14.74
2018-04-15T06:46:41.654Z,14.69
2018-04-15T06:47:47.174Z,14.74
2018-04-15T06:48:52.687Z,14.80
2018-04-15T06:49:58.192Z,14.84
2018-04-15T06:51:03.709Z,14.74
2018-04-15T06:52:09.232Z,14.86
2018-04-15T06:53:14.736Z,14.83
2018-04-15T06:54:20.248Z,14.78
2018-04-15T06:55:25.765Z,14.84
2018-04-15T06:56:31.278Z,14.90
2018-04-15T06:57:36.808Z,14.98
2018-04-15T06:58:42.305Z,14.94
2018-04-15T06:59:47.820Z,14.91
2018-04-15T07:00:53.335Z,14.99
2018-04-15T07:01:58.847Z,15.06
2018-04-15T07:03:04.361Z,15.01
2018-04-15T07:04:09.877Z,15.13
2018-04-15T07:05:15.388Z,15.15
2018-04-15T07:06:20.909Z,15.17
2018-04-15T07:07:26.420Z,15.21
2018-04-15T07:08:31.938Z,15.23
2018-04-15T07:09:37.469Z,15.24
2018-04-15T07:10:42.968Z,15.31
2018-04-15T07:11:48.493Z,15.26
2018-04-15T07:12:53.988Z,15.35
2018-04-15T07:13:59.518Z,15.41
2018-04-15T07:15:05.026Z,15.38
2018-04-15T07:16:10.532Z,15.45
2018-04-15T07:17:16.102Z,15.51
2018-04-15T07:18:21.566Z,15.59
2018-04-15T07:19:27.076Z,15.52
2018-04-15T07:20:32.595Z,15.61
2018-04-15T07:21:38.130Z,15.60
2018-04-15T07:22:43.625Z,15.67
2018-04-15T07:23:49.137Z,15.67
2018-04-15T07:24:54.667Z,15.76
2018-04-15T07:26:00.169Z,15.74
2018-04-15T07:27:05.679Z,15.76
2018-04-15T07:28:11.203Z,15.81
2018-04-15T07:29:16.707Z,15.76
2018-04-15T07:30:22.237Z,15.79
2018-04-15T07:31:27.738Z,15.88
2018-04-15T07:32:33.259Z,15.78
2018-04-15T07:33:38.773Z,15.88
2018-04-15T07:34:44.287Z,15.88
2018-04-15T07:35:49.799Z,15.93
2018-04-15T07:36:55.320Z,15.93
2018-04-15T07:38:00.826Z,15.92
2018-04-15T07:39:06.339Z,15.94
2018-04-15T07:40:11.866Z,15.99
2018-04-15T07:41:17.373Z,15.97
2018-04-15T07:42:22.886Z,16.06
2018-04-15T07:43:28.399Z,16.09
2018-04-15T07:44:33.919Z,16.15
2018-04-15T07:45:39.435Z,16.04
2018-04-15T07:46:44.944Z,16.15
2018-04-15T07:47:50.455Z,16.06
2018-04-15T07:48:55.975Z,16.15
2018-04-15T07:50:01.489Z,16.23
2018-04-15T07:51:07.000Z,16.16
2018-04-15T07:52:12.518Z,16.30
2018-04-15T07:53:18.032Z,16.26
2018-04-15T07:54:23.554Z,16.38
2018-04-15T07:55:29.060Z,16.25
2018-04-15T07:56:34.587Z,16.37
2018-04-15T07:57:40.091Z,16.35
2018-04-15T07:58:45.607Z,16.41
2018-04-15T07:59:51.122Z,16.41
2018-04-15T08:00:56.646Z,16.38
2018-04-15T08:02:02.153Z,16.45
2018-04-15T08:03:07.664Z,16.48
2018-04-15T08:04:13.189Z,16.58
2018-04-15T08:05:18.700Z,16.60
2018-04-15T08:06:24.208Z,16.65
2018-04-15T08:07:29.725Z,16.62
2018-04-15T08:08:35.240Z,16.83
2018-04-15T08:09:40.756Z,16.90
2018-04-15T08:10:46.273Z,16.95
2018-04-15T08:11:51.785Z,16.95
2018-04-15T08:12:57.302Z,16.96
2018-04-15T08:14:02.815Z,17.00
2018-04-15T08:15:08.336Z,16.95
2018-04-15T08:16:13.849Z,16.99
2018-04-15T08:17:19.362Z,17.03
2018-04-15T08:18:24.888Z,17.14
2018-04-15T08:19:30.393Z,17.08
2018-04-15T08:20:35.915Z,16.99
2018-04-15T08:21:41.423Z,17.08
2018-04-15T08:22:46.941Z,17.08
2018-04-15T08:23:52.463Z,17.08
2018-04-15T08:24:57.969Z,17.04
2018-04-15T08:26:03.495Z,17.04
2018-04-15T08:27:09.003Z,17.15
2018-04-15T08:28:14.516Z,17.11
2018-04-15T08:29:20.029Z,17.08
2018-04-15T08:30:25.553Z,17.08
2018-04-15T08:31:31.075Z,17.03
2018-04-15T08:32:36.595Z,17.04
2018-04-15T08:33:42.091Z,17.06
2018-04-15T08:34:47.619Z,17.03
2018-04-15T08:35:53.125Z,17.15
2018-04-15T08:36:58.641Z,17.15
2018-04-15T08:38:04.193Z,17.15
2018-04-15T08:39:09.668Z,17.23
2018-04-15T08:40:15.181Z,17.29
2018-04-15T08:41:20.701Z,17.41
2018-04-15T08:42:26.232Z,17.33
2018-04-15T08:43:31.728Z,17.48
2018-04-15T08:44:37.247Z,17.51
2018-04-15T08:45:42.776Z,17.51
2018-04-15T08:46:48.289Z,17.50
2018-04-15T08:47:53.792Z,17.50
2018-04-15T08:48:59.309Z,17.51
2018-04-15T08:50:04.825Z,17.53
2018-04-15T08:51:10.342Z,17.48
2018-04-15T08:52:15.853Z,17.48
2018-04-15T08:53:21.369Z,17.53
2018-04-15T08:54:26.895Z,17.50
2018-04-15T08:55:32.403Z,17.48
2018-04-15T08:56:37.916Z,17.62
2018-04-15T08:57:43.463Z,17.66
2018-04-15T08:58:48.947Z,17.64
2018-04-15T08:59:54.468Z,17.57
2018-04-15T09:00:59.978Z,17.64
2018-04-15T09:02:05.499Z,17.67
2018-04-15T09:03:11.014Z,17.64
2018-04-15T09:04:16.528Z,17.71
2018-04-15T09:05:22.044Z,17.74
2018-04-15T09:06:27.561Z,17.73
2018-04-15T09:07:33.075Z,17.81
2018-04-15T09:08:38.588Z,17.85
2018-04-15T09:09:44.149Z,17.88
2018-04-15T09:10:49.619Z,18.00
2018-04-15T09:11:55.138Z,18.03
2018-04-15T09:13:00.651Z,18.02
2018-04-15T09:14:06.166Z,17.92
2018-04-15T09:15:11.687Z,17.99
2018-04-15T09:16:17.203Z,18.02
2018-04-15T09:17:22.713Z,18.02
2018-04-15T09:18:28.233Z,17.89
2018-04-15T09:19:33.756Z,17.92
2018-04-15T09:20:39.259Z,17.94
2018-04-15T09:21:44.784Z,17.87
2018-04-15T09:22:50.305Z,17.88
2018-04-15T09:23:55.811Z,17.79
2018-04-15T09:25:01.325Z,17.85
2018-04-15T09:26:06.841Z,17.79
2018-04-15T09:27:12.354Z,17.81
2018-04-15T09:28:17.876Z,17.78
2018-04-15T09:29:23.394Z,17.76
2018-04-15T09:30:28.912Z,17.67
2018-04-15T09:31:34.433Z,17.70
2018-04-15T09:32:39.933Z,17.78
2018-04-15T09:33:45.451Z,17.70
2018-04-15T09:34:50.969Z,17.84
2018-04-15T09:35:56.487Z,17.85
2018-04-15T09:37:01.999Z,17.92
2018-04-15T09:38:07.572Z,18.00
2018-04-15T09:39:13.029Z,17.97
2018-04-15T09:40:18.556Z,18.02
2018-04-15T09:41:24.070Z,18.04
2018-04-15T09:42:29.583Z,18.04
2018-04-15T09:43:35.103Z,18.13
2018-04-15T09:44:40.613Z,18.19
2018-04-15T09:45:46.132Z,18.27
2018-04-15T09:46:51.638Z,18.29
2018-04-15T09:47:57.156Z,18.42
2018-04-15T09:49:02.678Z,18.55
2018-04-15T09:50:08.199Z,18.58
2018-04-15T09:51:13.705Z,18.62
2018-04-15T09:52:19.228Z,18.64
2018-04-15T09:53:24.737Z,18.77
2018-04-15T09:54:30.259Z,18.80
2018-04-15T09:55:35.783Z,18.92
2018-04-15T09:56:41.285Z,18.97
2018-04-15T09:57:46.801Z,18.98
2018-04-15T09:58:52.333Z,19.14
2018-04-15T09:59:57.837Z,19.08
2018-04-15T10:01:03.354Z,19.13
2018-04-15T10:02:08.866Z,19.29
2018-04-15T10:03:14.385Z,19.25
2018-04-15T10:04:19.905Z,19.39
2018-04-15T10:05:25.414Z,19.36
2018-04-15T10:06:30.938Z,19.42
2018-04-15T10:07:36.454Z,19.39
2018-04-15T10:08:41.966Z,19.40
2018-04-15T10:09:47.485Z,19.51
2018-04-15T10:10:53.030Z,19.61
2018-04-15T10:11:58.515Z,19.63
2018-04-15T10:13:04.044Z,19.70
2018-04-15T10:14:09.555Z,19.57
2018-04-15T10:15:15.070Z,19.51
2018-04-15T10:16:20.590Z,19.48
2018-04-15T10:17:26.106Z,19.43
2018-04-15T10:18:31.620Z,19.33
2018-04-15T10:19:37.136Z,19.18
2018-04-15T10:20:42.663Z,19.18
2018-04-15T10:21:48.167Z,19.13
2018-04-15T10:22:53.686Z,19.15
2018-04-15T10:23:59.269Z,18.98
2018-04-15T10:25:04.720Z,18.92
2018-04-15T10:26:10.246Z,18.79
2018-04-15T10:27:15.753Z,18.76
2018-04-15T10:28:21.277Z,18.95
2018-04-15T10:29:26.803Z,19.01
2018-04-15T10:30:32.310Z,19.15
2018-04-15T10:31:37.823Z,19.15
2018-04-15T10:32:43.373Z,19.32
2018-04-15T10:33:48.859Z,19.36
2018-04-15T10:34:54.371Z,19.42
2018-04-15T10:35:59.892Z,19.61
2018-04-15T10:37:05.407Z,19.65
2018-04-15T10:38:10.936Z,19.80
2018-04-15T10:39:16.442Z,19.88
2018-04-15T10:40:21.982Z,19.94
2018-04-15T10:41:27.480Z,19.86
2018-04-15T10:42:32.991Z,20.00
2018-04-15T10:43:38.546Z,20.08
2018-04-15T10:44:44.038Z,20.09
2018-04-15T10:45:49.558Z,20.16
2018-04-15T10:46:55.058Z,20.13
2018-04-15T10:48:00.576Z,20.25
2018-04-15T10:49:06.095Z,20.42
2018-04-15T10:50:11.615Z,20.56
2018-04-15T10:51:17.129Z,20.59
2018-04-15T10:52:22.649Z,20.49
2018-04-15T10:53:28.172Z,20.64
2018-04-15T10:54:33.727Z,20.74
2018-04-15T10:55:39.194Z,20.84
2018-04-15T10:56:44.716Z,20.96
2018-04-15T10:57:50.240Z,20.89
2018-04-15T10:58:55.750Z,21.04
2018-04-15T11:00:01.268Z,21.06
2018-04-15T11:01:06.803Z,21.16
2018-04-15T11:02:12.316Z,21.08
2018-04-15T11:03:17.825Z,21.16
2018-04-15T11:04:23.368Z,21.23
2018-04-15T11:05:28.861Z,21.36
2018-04-15T11:06:34.388Z,21.30
2018-04-15T11:07:39.896Z,21.34
2018-04-15T11:08:45.467Z,21.51
2018-04-15T11:09:50.928Z,21.56
2018-04-15T11:10:56.454Z,21.60
2018-04-15T11:12:01.970Z,21.60
2018-04-15T11:13:07.490Z,21.54
2018-04-15T11:14:13.059Z,21.59
2018-04-15T11:15:18.523Z,21.59
2018-04-15T11:16:24.046Z,21.57
2018-04-15T11:17:29.558Z,21.66
2018-04-15T11:18:35.074Z,21.64
2018-04-15T11:19:40.589Z,21.64
2018-04-15T11:20:46.106Z,21.69
2018-04-15T11:21:51.628Z,21.57
2018-04-15T11:22:57.151Z,21.53
2018-04-15T11:24:02.675Z,21.66
2018-04-15T11:25:08.182Z,21.69
2018-04-15T11:26:13.698Z,21.61
2018-04-15T11:27:19.222Z,21.61
2018-04-15T11:28:24.741Z,21.66
2018-04-15T11:29:30.255Z,21.66
2018-04-15T11:30:35.775Z,21.79
2018-04-15T11:31:41.295Z,21.94
2018-04-15T11:32:46.808Z,21.88
2018-04-15T11:33:52.332Z,21.94
2018-04-15T11:34:57.850Z,22.02
2018-04-15T11:36:03.374Z,22.13
2018-04-15T11:37:08.886Z,22.10
2018-04-15T11:38:14.399Z,22.13
2018-04-15T11:39:19.925Z,22.20
2018-04-15T11:40:25.560Z,22.20
2018-04-15T11:41:30.978Z,22.23
2018-04-15T11:42:36.478Z,22.41
2018-04-15T11:43:41.999Z,22.43
2018-04-15T11:44:47.516Z,22.49
2018-04-15T11:45:53.036Z,22.52
2018-04-15T11:46:58.600Z,22.52
2018-04-15T11:48:04.305Z,22.53
2018-04-15T11:49:09.597Z,22.56
2018-04-15T11:50:15.106Z,22.53
2018-04-15T11:51:20.627Z,22.57
2018-04-15T11:52:26.147Z,22.54
2018-04-15T11:53:31.658Z,22.56
2018-04-15T11:54:37.177Z,22.60
2018-04-15T11:55:42.698Z,22.65
2018-04-15T11:56:48.217Z,22.69
2018-04-15T11:57:53.739Z,22.75
2018-04-15T11:58:59.253Z,22.72
2018-04-15T12:00:04.776Z,22.69
2018-04-15T12:01:10.349Z,22.71
2018-04-15T12:02:15.827Z,22.65
2018-04-15T12:03:21.339Z,22.77
2018-04-15T12:04:26.849Z,22.74
2018-04-15T12:05:32.368Z,22.72
2018-04-15T12:06:37.896Z,22.69
2018-04-15T12:07:43.410Z,22.60
2018-04-15T12:08:48.925Z,22.53
2018-04-15T12:09:54.448Z,22.59
2018-04-15T12:10:59.969Z,22.72
2018-04-15T12:12:05.480Z,22.68
2018-04-15T12:13:11.007Z,22.87
2018-04-15T12:14:16.519Z,22.97
2018-04-15T12:15:22.042Z,22.97
2018-04-15T12:16:27.562Z,22.92
2018-04-15T12:17:33.082Z,22.89
2018-04-15T12:18:38.601Z,22.96
2018-04-15T12:19:44.125Z,23.11
2018-04-15T12:20:49.636Z,23.14
2018-04-15T12:21:55.157Z,23.22
2018-04-15T12:23:00.677Z,23.31
2018-04-15T12:24:06.197Z,23.23
2018-04-15T12:25:11.724Z,23.31
2018-04-15T12:26:17.239Z,23.32
2018-04-15T12:27:22.758Z,23.29
2018-04-15T12:28:28.273Z,23.34
2018-04-15T12:29:33.787Z,23.35
2018-04-15T12:30:39.311Z,23.43
2018-04-15T12:31:44.851Z,23.49
2018-04-15T12:32:50.351Z,23.38
2018-04-15T12:33:55.937Z,23.24
2018-04-15T12:35:01.391Z,23.24
2018-04-15T12:36:06.905Z,23.24
2018-04-15T12:37:12.429Z,23.32
2018-04-15T12:38:17.953Z,23.38
2018-04-15T12:39:23.466Z,23.39
2018-04-15T12:40:28.991Z,23.55
2018-04-15T12:41:34.513Z,23.60
2018-04-15T12:42:40.046Z,23.64
2018-04-15T12:43:45.548Z,23.77
2018-04-15T12:44:51.067Z,23.86
2018-04-15T12:45:56.596Z,23.98
2018-04-15T12:47:02.113Z,24.00
2018-04-15T12:48:07.620Z,23.94
2018-04-15T12:49:13.145Z,24.07
2018-04-15T12:50:18.678Z,23.98
2018-04-15T12:51:24.188Z,24.04
2018-04-15T12:52:29.701Z,24.08
2018-04-15T12:53:35.229Z,24.13
2018-04-15T12:54:40.739Z,24.20
2018-04-15T12:55:46.261Z,24.27
2018-04-15T12:56:51.781Z,24.27
2018-04-15T12:57:57.319Z,24.41
2018-04-15T12:59:02.818Z,24.49
2018-04-15T13:00:08.339Z,24.44
2018-04-15T13:01:13.921Z,24.45
2018-04-15T13:02:19.389Z,24.47
2018-04-15T13:03:24.899Z,24.61
2018-04-15T13:04:30.433Z,24.60
2018-04-15T13:05:35.939Z,24.54
2018-04-15T13:06:41.467Z,24.57
2018-04-15T13:07:46.979Z,24.60
2018-04-15T13:08:52.500Z,24.69
2018-04-15T13:09:58.028Z,24.76
2018-04-15T13:11:03.541Z,24.76
2018-04-15T13:12:09.060Z,24.63
2018-04-15T13:13:14.585Z,24.59
2018-04-15T13:14:20.114Z,24.50
2018-04-15T13:15:25.634Z,24.39
2018-04-15T13:16:31.150Z,24.24
2018-04-15T13:17:36.669Z,24.14
2018-04-15T13:18:42.197Z,24.01
2018-04-15T13:19:47.708Z,23.94
2018-04-15T13:20:53.222Z,23.85
2018-04-15T13:21:58.751Z,23.76
2018-04-15T13:23:04.269Z,23.76
2018-04-15T13:24:09.789Z,23.61
2018-04-15T13:25:15.302Z,23.46
2018-04-15T13:26:20.833Z,23.39
2018-04-15T13:27:26.366Z,23.42
2018-04-15T13:28:31.882Z,23.32
2018-04-15T13:29:37.379Z,23.26
2018-04-15T13:30:42.903Z,23.09
2018-04-15T13:31:48.541Z,23.11
2018-04-15T13:32:53.951Z,23.01
2018-04-15T13:33:59.467Z,22.94
2018-04-15T13:35:04.989Z,22.90
2018-04-15T13:36:10.513Z,22.89
2018-04-15T13:37:16.044Z,22.78
2018-04-15T13:38:21.546Z,22.78
2018-04-15T13:39:27.066Z,22.71
2018-04-15T13:40:32.578Z,22.71
2018-04-15T13:41:38.098Z,22.64
2018-04-15T13:42:43.633Z,22.46
2018-04-15T13:43:49.140Z,22.41
2018-04-15T13:44:54.668Z,22.37
2018-04-15T13:46:00.176Z,22.38
2018-04-15T13:47:05.698Z,22.35
2018-04-15T13:48:11.232Z,22.22
2018-04-15T13:49:16.734Z,22.20
2018-04-15T13:50:22.263Z,22.13
2018-04-15T13:51:27.786Z,22.01
2018-04-15T13:52:33.288Z,22.07
2018-04-15T13:53:38.806Z,22.06
2018-04-15T13:54:44.328Z,22.07
2018-04-15T13:55:49.889Z,21.99
2018-04-15T13:56:55.367Z,21.99
2018-04-15T13:58:00.888Z,21.95
2018-04-15T13:59:06.412Z,21.88
2018-04-15T14:00:11.920Z,21.81
2018-04-15T14:01:17.447Z,21.88
2018-04-15T14:02:22.958Z,21.75
2018-04-15T14:03:28.482Z,21.75